Time;durP1;ratioP1;P1;durP2;ratioP2;P2;SDS_P1;SDS_P2;PMS_P1;PMS_P2;Temp;Humidity;BMP_temperature;BMP_pressure;BME280_temperature;BME280_humidity;BME280_pressure;Samples;Min_cycle;Max_cycle;Signal;HPM_P1;HPM_P2
2023/06/16 00:01:26;;;;;;;5.70;2.30;;;13.70;63.30;;;;;;5002053;28;20201;-67
2023/06/16 00:03:53;;;;;;;8.70;2.30;;;13.70;63.00;;;;;;5000385;28;20636;-71
2023/06/16 00:06:29;;;;;;;10.00;2.60;;;13.70;63.00;;;;;;5004627;28;20193;-67
2023/06/16 00:08:58;;;;;;;5.60;2.40;;;13.90;63.60;;;;;;5005545;28;20719;-69
2023/06/16 00:11:27;;;;;;;4.37;2.50;;;13.90;63.20;;;;;;4999157;28;20189;-67
2023/06/16 00:13:56;;;;;;;9.63;2.57;;;14.20;62.60;;;;;;5006746;28;20256;-67
2023/06/16 00:16:26;;;;;;;7.93;2.23;;;14.30;61.90;;;;;;4998905;28;20256;-67
2023/06/16 00:18:57;;;;;;;6.20;2.00;;;14.30;61.90;;;;;;5003849;28;20208;-66
2023/06/16 00:21:48;;;;;;;5.93;2.20;;;14.30;61.40;;;;;;4999835;28;20186;-67
2023/06/16 00:24:15;;;;;;;8.10;2.67;;;14.40;61.10;;;;;;5002986;28;20451;-67
2023/06/16 00:26:42;;;;;;;5.07;2.13;;;14.50;61.30;;;;;;5005214;28;20185;-67
2023/06/16 00:29:10;;;;;;;8.13;2.33;;;14.60;60.80;;;;;;5005950;28;20658;-68
2023/06/16 00:31:37;;;;;;;5.13;1.90;;;14.70;60.50;;;;;;5004159;28;20287;-68
2023/06/16 00:34:04;;;;;;;5.90;2.30;;;14.80;60.00;;;;;;4998939;28;20204;-68
2023/06/16 00:36:32;;;;;;;4.47;2.10;;;14.80;60.10;;;;;;5000437;28;20941;-67
2023/06/16 00:38:59;;;;;;;9.73;2.97;;;14.80;60.10;;;;;;5004077;28;20204;-67
2023/06/16 00:41:27;;;;;;;7.17;2.30;;;15.10;60.20;;;;;;5004194;28;20235;-67
2023/06/16 00:43:55;;;;;;;5.13;2.43;;;15.10;59.50;;;;;;5007492;28;20200;-68
2023/06/16 00:46:32;;;;;;;4.47;2.20;;;15.20;58.50;;;;;;5004921;28;20194;-67
2023/06/16 00:49:01;;;;;;;5.03;2.10;;;15.30;59.10;;;;;;5003254;28;20273;-67
2023/06/16 00:51:30;;;;;;;4.57;2.30;;;15.30;58.10;;;;;;5002098;28;20193;-69
2023/06/16 00:53:59;;;;;;;6.63;2.37;;;15.50;58.60;;;;;;5000423;28;20189;-67
2023/06/16 00:56:27;;;;;;;5.07;2.20;;;15.60;58.00;;;;;;5001903;28;20295;-66
2023/06/16 00:58:55;;;;;;;9.83;2.10;;;15.70;58.20;;;;;;5005889;28;20190;-66
2023/06/16 01:01:28;;;;;;;8.60;2.27;;;15.80;56.90;;;;;;5003336;28;20208;-66
2023/06/16 01:03:55;;;;;;;8.97;2.70;;;15.80;56.50;;;;;;5005941;28;20193;-69
2023/06/16 01:07:03;;;;;;;7.50;2.20;;;16.00;57.10;;;;;;5002648;28;20260;-69
2023/06/16 01:10:00;;;;;;;7.17;2.27;;;16.30;56.50;;;;;;5003656;28;20219;-67
2023/06/16 01:12:58;;;;;;;4.60;2.10;;;16.30;55.90;;;;;;5001543;28;20189;-66
2023/06/16 01:15:28;;;;;;;4.70;2.00;;;16.40;55.80;;;;;;4998583;28;20574;-67
2023/06/16 01:17:59;;;;;;;4.33;1.90;;;16.50;55.50;;;;;;4997220;28;20211;-70
2023/06/16 01:20:33;;;;;;;5.93;2.10;;;16.70;54.80;;;;;;5003509;28;20187;-67
2023/06/16 01:23:16;;;;;;;3.90;1.70;;;16.70;54.60;;;;;;4999460;28;20190;-66
2023/06/16 01:25:44;;;;;;;8.77;1.90;;;16.70;54.10;;;;;;5003513;28;20618;-67
2023/06/16 01:28:13;;;;;;;10.50;1.80;;;17.00;54.00;;;;;;5000629;28;20207;-67
2023/06/16 01:30:44;;;;;;;9.20;1.80;;;17.20;53.20;;;;;;5002586;28;20184;-65
2023/06/16 01:33:14;;;;;;;4.53;1.57;;;17.00;53.20;;;;;;5006134;28;20187;-68
2023/06/16 01:35:42;;;;;;;7.00;1.83;;;17.10;53.20;;;;;;5005805;28;20701;-66
2023/06/16 01:38:09;;;;;;;7.27;1.77;;;17.00;53.10;;;;;;4998966;28;20211;-67
2023/06/16 01:40:38;;;;;;;3.73;1.50;;;17.20;53.10;;;;;;4996857;28;20233;-67
2023/06/16 01:43:07;;;;;;;10.43;2.53;;;17.30;52.30;;;;;;5004467;28;20241;-66
2023/06/16 01:45:36;;;;;;;5.97;2.40;;;17.30;52.60;;;;;;5008093;28;20177;-66
2023/06/16 01:48:04;;;;;;;10.70;1.70;;;17.60;52.30;;;;;;5000330;28;20555;-69
2023/06/16 01:50:32;;;;;;;3.47;1.47;;;17.70;51.60;;;;;;5001559;28;20548;-67
2023/06/16 01:52:59;;;;;;;2.63;1.27;;;17.70;51.70;;;;;;5001619;28;20203;-65
2023/06/16 01:55:26;;;;;;;4.47;1.60;;;17.80;51.30;;;;;;5005843;28;20566;-68
2023/06/16 01:57:56;;;;;;;7.97;1.47;;;17.90;51.50;;;;;;5004916;28;20205;-67
2023/06/16 02:00:42;;;;;;;5.90;1.43;;;18.20;50.50;;;;;;5001835;28;20217;-67
2023/06/16 02:03:45;;;;;;;6.03;1.60;;;18.20;51.40;;;;;;5006578;28;20189;-67
2023/06/16 02:06:37;;;;;;;4.83;1.53;;;18.30;49.80;;;;;;5005717;28;20199;-66
2023/06/16 02:09:06;;;;;;;7.90;1.90;;;18.50;49.20;;;;;;4984202;28;20581;-67
2023/06/16 02:11:35;;;;;;;5.57;1.50;;;18.20;49.60;;;;;;5008779;28;20177;-68
2023/06/16 02:14:03;;;;;;;3.20;1.30;;;18.00;49.90;;;;;;5009809;28;20217;-67
2023/06/16 02:16:42;;;;;;;5.97;1.83;;;18.20;50.40;;;;;;5008168;28;20217;-66
2023/06/16 02:19:14;;;;;;;8.57;1.77;;;18.30;49.70;;;;;;5005922;28;20189;-66
2023/06/16 02:21:44;;;;;;;4.87;1.90;;;18.30;50.00;;;;;;5002546;28;20640;-67
2023/06/16 02:24:11;;;;;;;5.83;1.50;;;18.60;49.30;;;;;;5007894;28;20466;-66
2023/06/16 02:26:39;;;;;;;5.60;1.60;;;18.80;48.60;;;;;;5002343;28;20221;-69
2023/06/16 02:29:07;;;;;;;3.60;1.63;;;19.10;47.70;;;;;;5006004;28;20243;-66
2023/06/16 02:31:34;;;;;;;6.37;1.90;;;19.20;48.30;;;;;;5004015;28;20205;-66
2023/06/16 02:34:04;;;;;;;6.07;1.60;;;19.10;47.80;;;;;;5003893;28;20296;-66
2023/06/16 02:36:33;;;;;;;4.93;1.43;;;19.10;47.10;;;;;;5009261;28;20213;-67
2023/06/16 02:39:00;;;;;;;4.57;1.50;;;18.90;48.20;;;;;;5004161;28;20200;-67
2023/06/16 02:41:27;;;;;;;11.30;2.00;;;19.10;47.90;;;;;;5006170;28;20237;-68
2023/06/16 02:43:54;;;;;;;3.73;1.50;;;19.10;48.10;;;;;;5009995;28;20201;-69
2023/06/16 02:46:22;;;;;;;5.23;1.70;;;19.00;47.80;;;;;;5006728;28;20998;-67
2023/06/16 02:48:49;;;;;;;4.93;1.70;;;18.80;48.50;;;;;;5008589;28;20239;-68
2023/06/16 02:51:17;;;;;;;4.33;1.60;;;18.70;48.30;;;;;;5001956;28;20275;-67
2023/06/16 02:53:47;;;;;;;3.57;1.50;;;19.00;48.20;;;;;;5005212;28;20185;-67
2023/06/16 02:56:14;;;;;;;7.63;1.60;;;19.00;47.80;;;;;;5007950;28;20264;-67
2023/06/16 02:58:41;;;;;;;4.63;1.67;;;19.00;48.40;;;;;;5005805;28;20186;-66
2023/06/16 03:01:09;;;;;;;6.93;1.87;;;19.20;47.80;;;;;;5007903;28;20197;-66
2023/06/16 03:03:36;;;;;;;2.97;1.40;;;18.90;47.40;;;;;;5005372;28;20190;-68
2023/06/16 03:06:04;;;;;;;4.93;1.40;;;18.80;47.70;;;;;;4999847;28;20224;-68
2023/06/16 03:08:32;;;;;;;4.50;1.53;;;18.70;48.20;;;;;;5010342;28;20190;-67
2023/06/16 03:10:59;;;;;;;5.77;1.60;;;18.50;48.30;;;;;;5010225;28;20692;-67
2023/06/16 03:13:26;;;;;;;2.10;1.30;;;18.50;48.20;;;;;;5004026;28;20272;-67
2023/06/16 03:15:57;;;;;;;7.93;1.63;;;18.80;47.70;;;;;;5005572;28;20725;-67
2023/06/16 03:18:25;;;;;;;3.33;1.30;;;18.90;47.90;;;;;;5003211;28;20256;-67
2023/06/16 03:20:53;;;;;;;5.73;1.87;;;19.10;46.90;;;;;;5005407;28;20197;-68
2023/06/16 03:23:20;;;;;;;2.57;1.37;;;19.10;47.00;;;;;;5005601;28;20590;-69
2023/06/16 03:25:48;;;;;;;3.93;1.30;;;19.40;47.00;;;;;;5000955;28;20232;-66
2023/06/16 03:28:15;;;;;;;3.43;1.40;;;19.60;46.20;;;;;;5008059;28;20186;-68
2023/06/16 03:30:44;;;;;;;7.13;1.93;;;19.60;45.90;;;;;;5007808;28;20268;-66
2023/06/16 03:33:11;;;;;;;3.93;1.10;;;20.00;44.40;;;;;;5001156;28;20236;-67
2023/06/16 03:35:39;;;;;;;3.07;1.00;;;20.20;43.80;;;;;;5002788;28;20680;-67
2023/06/16 03:38:09;;;;;;;3.60;1.30;;;19.90;43.30;;;;;;4987429;28;20699;-66
2023/06/16 03:40:38;;;;;;;2.67;1.30;;;20.60;43.10;;;;;;5005226;28;20236;-66
2023/06/16 03:43:06;;;;;;;4.67;1.20;;;20.80;41.80;;;;;;5006831;28;20194;-68
2023/06/16 03:45:34;;;;;;;4.90;1.07;;;20.60;41.50;;;;;;5006374;28;20265;-66
2023/06/16 03:48:02;;;;;;;3.17;1.27;;;20.90;41.20;;;;;;5007831;28;20178;-66
2023/06/16 03:50:30;;;;;;;6.73;1.43;;;21.30;41.20;;;;;;5011094;28;20531;-67
2023/06/16 03:52:57;;;;;;;4.43;1.17;;;21.00;41.60;;;;;;4999391;28;20257;-65
2023/06/16 03:55:24;;;;;;;3.80;1.47;;;21.30;41.70;;;;;;5004467;28;20202;-66
2023/06/16 03:57:52;;;;;;;8.70;1.70;;;21.80;40.40;;;;;;4999320;28;20186;-67
2023/06/16 04:00:20;;;;;;;4.87;1.20;;;22.30;40.10;;;;;;5006264;28;20243;-66
2023/06/16 04:02:48;;;;;;;4.30;1.33;;;22.30;39.30;;;;;;5005583;28;20285;-67
2023/06/16 04:05:15;;;;;;;7.40;1.67;;;22.10;40.80;;;;;;5006629;28;20228;-67
2023/06/16 04:07:42;;;;;;;3.90;1.33;;;22.60;39.90;;;;;;5005364;28;20186;-67
2023/06/16 04:10:10;;;;;;;3.97;1.30;;;23.00;38.50;;;;;;5010027;28;20182;-67
2023/06/16 04:12:37;;;;;;;5.60;1.57;;;23.00;38.90;;;;;;5005719;28;20186;-67
2023/06/16 04:15:05;;;;;;;7.23;1.40;;;23.50;38.20;;;;;;5002784;28;20185;-66
2023/06/16 04:17:33;;;;;;;4.37;1.70;;;23.30;36.80;;;;;;5001349;28;20205;-66
2023/06/16 04:20:00;;;;;;;3.87;1.20;;;22.50;38.80;;;;;;5002522;28;20212;-66
2023/06/16 04:22:27;;;;;;;3.47;1.50;;;23.20;37.70;;;;;;5006188;28;20268;-66
2023/06/16 04:24:55;;;;;;;3.57;1.13;;;23.30;37.90;;;;;;5002131;28;20212;-67
2023/06/16 04:27:23;;;;;;;3.67;1.43;;;23.50;37.50;;;;;;4997114;28;20174;-66
2023/06/16 04:29:50;;;;;;;2.27;1.13;;;23.40;38.30;;;;;;5000952;28;20189;-67
2023/06/16 04:32:18;;;;;;;6.63;1.40;;;23.50;36.70;;;;;;5002617;28;20268;-69
2023/06/16 04:34:46;;;;;;;3.50;1.17;;;23.30;37.20;;;;;;5001288;28;20189;-67
2023/06/16 04:37:14;;;;;;;4.20;1.13;;;23.40;38.00;;;;;;5005721;28;20212;-67
2023/06/16 04:39:42;;;;;;;2.87;1.40;;;23.20;37.70;;;;;;5007996;28;20613;-68
2023/06/16 04:42:09;;;;;;;3.27;1.10;;;23.30;37.70;;;;;;5001518;28;20213;-67
2023/06/16 04:44:37;;;;;;;3.50;1.23;;;23.80;37.10;;;;;;5005988;28;20524;-69
2023/06/16 04:47:05;;;;;;;4.00;1.20;;;24.00;36.10;;;;;;4999382;28;20289;-70
2023/06/16 04:49:32;;;;;;;5.73;1.40;;;23.60;37.60;;;;;;5004263;28;20263;-70
2023/06/16 04:52:00;;;;;;;4.40;1.20;;;24.20;36.30;;;;;;5006732;28;20638;-70
2023/06/16 04:54:29;;;;;;;3.83;1.20;;;24.70;34.70;;;;;;5006244;28;20177;-67
2023/06/16 04:56:56;;;;;;;4.93;1.43;;;24.30;35.30;;;;;;5006379;28;20217;-67
2023/06/16 04:59:24;;;;;;;5.73;1.73;;;23.50;37.30;;;;;;5003833;28;20256;-71
2023/06/16 05:01:52;;;;;;;4.97;1.67;;;22.90;38.50;;;;;;5005658;28;20622;-67
2023/06/16 05:04:20;;;;;;;5.60;1.60;;;22.50;40.00;;;;;;5002100;28;20220;-69
2023/06/16 05:06:48;;;;;;;9.53;1.80;;;22.00;40.90;;;;;;5007093;28;20201;-67
2023/06/16 05:09:15;;;;;;;6.90;1.90;;;21.80;41.40;;;;;;5002226;28;20582;-69
2023/06/16 05:11:42;;;;;;;4.90;1.80;;;22.20;41.00;;;;;;5003570;28;20185;-67
2023/06/16 05:14:10;;;;;;;4.57;1.67;;;22.50;40.20;;;;;;4997985;28;20200;-67
2023/06/16 05:16:37;;;;;;;5.17;1.53;;;22.50;40.90;;;;;;4998232;28;20263;-70
2023/06/16 05:19:05;;;;;;;5.23;2.10;;;22.80;40.50;;;;;;4998590;28;20182;-67
2023/06/16 05:21:32;;;;;;;9.33;2.17;;;23.00;40.80;;;;;;5003773;28;20189;-67
2023/06/16 05:23:59;;;;;;;4.43;1.73;;;23.00;41.50;;;;;;5008425;28;20697;-67
2023/06/16 05:26:27;;;;;;;7.57;1.97;;;23.20;40.70;;;;;;5006319;28;20177;-66
2023/06/16 05:28:54;;;;;;;8.03;1.57;;;23.10;40.20;;;;;;4998960;28;20181;-69
2023/06/16 05:31:21;;;;;;;6.73;1.93;;;23.20;39.80;;;;;;5001422;28;20185;-66
2023/06/16 05:33:49;;;;;;;7.67;1.97;;;22.80;40.40;;;;;;4997678;28;20186;-66
2023/06/16 05:36:16;;;;;;;7.60;2.47;;;22.60;41.00;;;;;;5000903;28;20209;-67
2023/06/16 05:38:44;;;;;;;6.73;1.97;;;22.90;40.10;;;;;;4998964;28;20182;-66
2023/06/16 05:41:12;;;;;;;7.50;2.20;;;23.20;40.20;;;;;;4999329;28;20220;-68
2023/06/16 05:43:39;;;;;;;6.37;1.97;;;23.20;39.70;;;;;;5007617;28;20276;-67
2023/06/16 05:46:06;;;;;;;9.23;2.03;;;23.40;39.70;;;;;;5005173;28;20231;-67
2023/06/16 05:48:35;;;;;;;6.23;2.00;;;22.90;40.90;;;;;;5008368;28;20312;-66
2023/06/16 05:51:02;;;;;;;6.00;1.77;;;22.90;41.20;;;;;;5005607;28;20189;-70
2023/06/16 05:53:30;;;;;;;4.53;1.70;;;22.70;41.50;;;;;;5004428;28;20192;-67
2023/06/16 05:55:57;;;;;;;6.03;1.87;;;22.10;42.00;;;;;;5005765;28;20633;-67
2023/06/16 05:58:24;;;;;;;6.27;2.37;;;22.20;42.30;;;;;;5008212;28;20205;-66
2023/06/16 06:00:52;;;;;;;5.73;2.20;;;22.20;42.60;;;;;;5007276;28;20196;-66
2023/06/16 06:03:19;;;;;;;5.70;1.80;;;22.20;42.20;;;;;;5007292;28;20198;-66
2023/06/16 06:05:47;;;;;;;8.90;2.03;;;22.00;43.00;;;;;;5000384;28;20236;-67
2023/06/16 06:08:15;;;;;;;5.83;1.80;;;21.40;43.80;;;;;;5006092;28;20190;-66
2023/06/16 06:10:42;;;;;;;7.23;2.03;;;20.80;46.00;;;;;;5010413;28;20185;-69
2023/06/16 06:13:09;;;;;;;7.23;2.00;;;20.30;47.10;;;;;;5003885;28;20221;-66
2023/06/16 06:15:36;;;;;;;8.10;2.13;;;19.70;48.30;;;;;;5004352;28;20240;-68
2023/06/16 06:18:04;;;;;;;4.73;2.30;;;19.40;49.50;;;;;;5006777;28;20198;-66
2023/06/16 06:20:31;;;;;;;8.57;2.23;;;19.20;50.50;;;;;;5008174;28;20189;-66
2023/06/16 06:22:58;;;;;;;4.93;1.80;;;19.00;50.60;;;;;;5006890;28;20189;-67
2023/06/16 06:25:26;;;;;;;5.63;2.23;;;18.80;51.40;;;;;;5004353;28;20577;-66
2023/06/16 06:27:53;;;;;;;7.57;2.07;;;18.60;52.10;;;;;;5003250;28;20204;-67
2023/06/16 06:30:20;;;;;;;2.57;1.60;;;18.30;52.30;;;;;;5006277;28;20212;-68
2023/06/16 06:32:48;;;;;;;4.87;2.07;;;18.10;53.40;;;;;;5003162;28;20193;-66
2023/06/16 06:35:15;;;;;;;10.23;1.70;;;17.90;54.10;;;;;;5001516;28;20185;-71
2023/06/16 06:37:43;;;;;;;8.20;2.40;;;17.70;54.40;;;;;;5001605;28;20581;-67
2023/06/16 06:40:10;;;;;;;5.27;1.90;;;17.70;54.90;;;;;;5001436;28;20253;-69
2023/06/16 06:42:38;;;;;;;7.30;2.07;;;17.50;55.50;;;;;;5005381;28;20192;-67
2023/06/16 06:45:08;;;;;;;6.90;2.37;;;17.40;56.30;;;;;;5003027;28;20219;-68
2023/06/16 06:47:35;;;;;;;5.47;2.37;;;17.30;57.00;;;;;;5003482;28;20188;-67
2023/06/16 06:50:03;;;;;;;8.27;2.40;;;17.30;58.00;;;;;;5001889;28;20189;-70
2023/06/16 06:52:30;;;;;;;5.97;2.83;;;17.20;58.60;;;;;;5007340;28;20193;-65
2023/06/16 06:54:58;;;;;;;7.43;2.70;;;17.00;59.30;;;;;;5003481;28;20192;-65
2023/06/16 06:57:25;;;;;;;5.43;1.70;;;16.90;60.30;;;;;;5009342;28;20229;-66
2023/06/16 06:59:53;;;;;;;7.03;2.03;;;16.80;60.80;;;;;;5006169;28;20192;-67
2023/06/16 07:02:21;;;;;;;5.77;2.17;;;16.80;61.40;;;;;;5008569;28;20192;-68
2023/06/16 07:04:48;;;;;;;9.03;2.50;;;16.60;62.10;;;;;;5003273;28;20270;-67
2023/06/16 07:07:15;;;;;;;10.97;2.33;;;16.50;62.70;;;;;;5006205;28;20191;-67
2023/06/16 07:09:43;;;;;;;8.50;2.47;;;16.30;62.80;;;;;;5000748;28;20204;-70
2023/06/16 07:12:10;;;;;;;9.67;2.40;;;16.30;63.30;;;;;;5008047;28;20271;-70
2023/06/16 07:14:38;;;;;;;5.53;2.73;;;16.20;63.90;;;;;;5004702;28;20741;-69
2023/06/16 07:17:06;;;;;;;8.80;2.37;;;16.20;64.10;;;;;;5007164;28;20223;-66
2023/06/16 07:19:33;;;;;;;12.13;3.00;;;16.10;64.80;;;;;;5002997;28;20180;-66
2023/06/16 07:22:00;;;;;;;4.97;3.40;;;16.10;65.00;;;;;;4997958;28;20675;-69
2023/06/16 07:24:28;;;;;;;14.90;4.83;;;16.00;65.20;;;;;;5004379;28;20213;-67
2023/06/16 07:26:55;;;;;;;8.23;3.60;;;16.00;65.40;;;;;;5006613;28;20180;-67
2023/06/16 07:29:23;;;;;;;6.73;3.00;;;15.90;65.70;;;;;;5004439;28;20199;-66
2023/06/16 07:31:50;;;;;;;14.87;3.10;;;15.80;65.60;;;;;;5002874;28;20591;-67
2023/06/16 07:34:18;;;;;;;9.60;2.90;;;15.80;65.90;;;;;;5005103;28;20193;-65
2023/06/16 07:36:45;;;;;;;9.60;2.90;;;15.80;66.20;;;;;;4998836;28;20224;-65
2023/06/16 07:39:13;;;;;;;10.83;3.07;;;15.70;66.10;;;;;;5006121;28;20216;-65
2023/06/16 07:41:40;;;;;;;10.77;3.33;;;15.70;66.20;;;;;;5004062;28;20198;-66
2023/06/16 07:44:07;;;;;;;10.93;3.57;;;15.60;66.90;;;;;;5005229;28;20189;-65
2023/06/16 07:46:35;;;;;;;10.13;3.47;;;15.60;66.90;;;;;;5004596;28;20205;-66
2023/06/16 07:49:02;;;;;;;7.30;3.40;;;15.60;67.30;;;;;;5001146;28;20189;-66
2023/06/16 07:51:29;;;;;;;9.23;3.50;;;15.40;67.60;;;;;;5003627;28;20187;-66
2023/06/16 07:53:57;;;;;;;12.83;3.60;;;15.40;67.70;;;;;;5007519;28;20200;-66
2023/06/16 07:56:24;;;;;;;12.83;4.10;;;15.40;68.00;;;;;;5006358;28;20667;-69
2023/06/16 07:58:51;;;;;;;10.47;4.20;;;15.30;68.20;;;;;;5003399;28;20182;-66
2023/06/16 08:01:19;;;;;;;10.07;5.40;;;15.30;68.40;;;;;;5002008;28;20277;-65
2023/06/16 08:03:48;;;;;;;18.03;7.80;;;15.30;68.40;;;;;;5003317;28;20186;-65
2023/06/16 08:06:16;;;;;;;16.70;7.40;;;15.30;68.50;;;;;;5006482;28;20206;-66
2023/06/16 08:08:43;;;;;;;10.17;4.93;;;15.30;68.80;;;;;;5003794;28;20591;-65
2023/06/16 08:11:11;;;;;;;14.80;4.77;;;15.20;68.70;;;;;;5003494;28;20673;-66
2023/06/16 08:13:38;;;;;;;12.10;4.70;;;15.20;68.80;;;;;;5000642;28;20182;-65
2023/06/16 08:16:06;;;;;;;12.00;4.90;;;15.20;69.10;;;;;;5008149;28;20580;-67
2023/06/16 08:18:33;;;;;;;8.30;4.10;;;15.20;69.20;;;;;;5004455;28;20221;-67
2023/06/16 08:21:01;;;;;;;8.20;4.50;;;15.20;69.50;;;;;;5001330;28;20201;-67
2023/06/16 08:23:28;;;;;;;10.10;6.00;;;15.20;69.40;;;;;;5000656;28;20279;-68
2023/06/16 08:25:55;;;;;;;12.63;7.17;;;15.10;69.70;;;;;;5000929;28;20836;-67
2023/06/16 08:28:24;;;;;;;12.17;5.30;;;15.10;69.90;;;;;;5006617;28;20185;-67
2023/06/16 08:30:51;;;;;;;11.10;4.53;;;15.00;70.10;;;;;;5005469;28;20189;-66
2023/06/16 08:33:20;;;;;;;14.43;4.40;;;15.00;70.10;;;;;;5004462;28;20185;-67
2023/06/16 08:35:47;;;;;;;12.83;4.23;;;15.00;69.90;;;;;;5001116;28;20219;-67
2023/06/16 08:38:14;;;;;;;8.37;3.30;;;15.00;70.00;;;;;;5008316;28;20212;-66
2023/06/16 08:40:43;;;;;;;9.70;3.90;;;15.00;70.10;;;;;;5003621;28;20223;-66
2023/06/16 08:43:14;;;;;;;8.53;3.33;;;14.90;69.90;;;;;;4999302;28;20548;-67
2023/06/16 08:45:41;;;;;;;9.17;3.40;;;14.90;69.70;;;;;;5002814;28;20185;-68
2023/06/16 08:48:10;;;;;;;9.17;3.70;;;14.90;70.00;;;;;;4996817;28;20180;-66
2023/06/16 08:50:38;;;;;;;7.90;3.70;;;14.80;70.40;;;;;;5005309;28;20555;-66
2023/06/16 08:53:09;;;;;;;7.93;3.53;;;14.80;70.40;;;;;;5005857;28;20631;-66
2023/06/16 08:55:43;;;;;;;7.30;3.23;;;14.80;70.70;;;;;;5004558;28;20224;-66
2023/06/16 08:58:15;;;;;;;11.03;3.70;;;14.70;70.90;;;;;;4983474;28;20204;-67
2023/06/16 09:00:46;;;;;;;9.20;3.23;;;14.70;70.80;;;;;;5002686;28;20190;-67
2023/06/16 09:03:14;;;;;;;12.77;3.87;;;14.70;70.60;;;;;;5005820;28;20197;-67
2023/06/16 09:05:42;;;;;;;13.57;4.03;;;14.70;71.00;;;;;;5001498;28;20204;-66
2023/06/16 09:08:11;;;;;;;13.17;4.30;;;14.60;71.10;;;;;;4995895;28;20695;-67
2023/06/16 09:10:38;;;;;;;8.67;4.13;;;14.60;71.30;;;;;;5002970;28;20182;-66
2023/06/16 09:13:06;;;;;;;11.83;4.57;;;14.50;71.20;;;;;;5005450;28;20205;-67
2023/06/16 09:15:36;;;;;;;9.83;5.07;;;14.50;71.40;;;;;;5001103;28;20556;-67
2023/06/16 09:18:07;;;;;;;12.83;4.87;;;14.30;71.60;;;;;;5006216;28;20235;-66
2023/06/16 09:20:41;;;;;;;12.17;5.50;;;14.30;72.00;;;;;;5011318;28;20189;-67
2023/06/16 09:23:10;;;;;;;11.23;6.47;;;14.20;72.10;;;;;;5005205;28;20177;-66
2023/06/16 09:25:40;;;;;;;14.67;6.90;;;14.10;72.60;;;;;;5000920;28;20186;-67
2023/06/16 09:28:10;;;;;;;12.00;6.23;;;14.00;72.90;;;;;;4992472;28;20261;-66
2023/06/16 09:30:38;;;;;;;12.30;7.10;;;14.00;73.10;;;;;;5003323;28;20213;-67
2023/06/16 09:33:06;;;;;;;12.53;7.57;;;13.90;73.70;;;;;;5001857;28;20192;-67
2023/06/16 09:35:33;;;;;;;16.50;7.30;;;13.80;73.60;;;;;;5011301;28;20558;-67
2023/06/16 09:38:03;;;;;;;14.53;7.73;;;13.80;74.20;;;;;;5003798;28;20192;-66
2023/06/16 09:40:33;;;;;;;15.37;7.93;;;13.80;74.40;;;;;;5003475;28;20226;-67
2023/06/16 09:43:04;;;;;;;11.13;6.00;;;13.70;74.70;;;;;;5008353;28;20687;-67
2023/06/16 09:45:32;;;;;;;14.47;7.60;;;13.70;74.80;;;;;;5006291;28;20190;-66
2023/06/16 09:48:05;;;;;;;18.63;7.20;;;13.70;75.00;;;;;;5006868;28;20664;-66
2023/06/16 09:50:33;;;;;;;13.37;6.67;;;13.60;75.10;;;;;;5005061;28;20216;-68
2023/06/16 09:53:06;;;;;;;8.07;5.07;;;13.70;75.40;;;;;;5004850;28;20208;-70
2023/06/16 09:55:39;;;;;;;10.70;6.70;;;13.60;75.10;;;;;;5004945;28;20214;-68
2023/06/16 09:58:06;;;;;;;13.07;8.13;;;13.50;75.40;;;;;;5005953;28;20185;-67
2023/06/16 10:00:34;;;;;;;17.83;9.07;;;13.50;75.60;;;;;;5011355;28;20236;-66
2023/06/16 10:03:04;;;;;;;24.63;9.90;;;13.40;75.90;;;;;;4989058;28;20221;-66
2023/06/16 10:05:35;;;;;;;13.33;6.93;;;13.30;75.90;;;;;;5008074;28;20663;-67
2023/06/16 10:08:05;;;;;;;19.53;8.33;;;13.30;76.10;;;;;;5005523;28;20201;-67
2023/06/16 10:10:33;;;;;;;15.90;8.40;;;13.30;76.10;;;;;;5007266;28;20181;-67
2023/06/16 10:13:05;;;;;;;15.80;8.30;;;13.30;76.10;;;;;;5005008;28;20701;-67
2023/06/16 10:15:37;;;;;;;14.03;6.33;;;13.20;76.20;;;;;;5006787;28;20192;-65
2023/06/16 10:18:07;;;;;;;15.90;6.23;;;13.30;76.60;;;;;;5006565;28;20189;-67
2023/06/16 10:20:37;;;;;;;11.03;5.80;;;13.20;76.50;;;;;;5008166;28;20181;-67
2023/06/16 10:23:04;;;;;;;17.07;5.80;;;13.20;76.70;;;;;;5000162;28;20189;-66
2023/06/16 10:25:33;;;;;;;11.30;4.60;;;13.20;76.60;;;;;;5003835;28;20197;-67
2023/06/16 10:28:05;;;;;;;9.53;5.03;;;13.20;76.80;;;;;;5006616;28;20209;-67
2023/06/16 10:30:32;;;;;;;7.47;4.30;;;13.20;76.90;;;;;;5008504;28;20245;-66
2023/06/16 10:33:14;;;;;;;13.40;5.80;;;13.20;76.80;;;;;;4990776;28;20182;-66
2023/06/16 10:35:51;;;;;;;15.07;5.47;;;13.20;77.20;;;;;;5001256;28;20572;-66
2023/06/16 10:38:20;;;;;;;11.60;4.70;;;13.10;77.00;;;;;;5001709;28;20198;-66
2023/06/16 10:40:50;;;;;;;15.53;4.97;;;13.10;77.10;;;;;;5008103;28;20228;-66
2023/06/16 10:43:26;;;;;;;14.97;5.70;;;13.10;77.40;;;;;;5002397;28;20261;-66
2023/06/16 10:46:20;;;;;;;15.33;5.33;;;13.00;77.20;;;;;;5009086;28;20835;-67
2023/06/16 10:49:25;;;;;;;11.20;4.53;;;12.90;77.20;;;;;;5007984;28;20185;-67
2023/06/16 10:51:56;;;;;;;18.20;5.10;;;12.90;77.50;;;;;;4983998;28;20199;-66
2023/06/16 10:54:51;;;;;;;9.20;4.30;;;12.90;77.70;;;;;;4999694;28;20182;-66
2023/06/16 10:57:18;;;;;;;14.60;4.57;;;12.80;77.70;;;;;;5001733;28;20303;-67
2023/06/16 11:00:13;;;;;;;15.07;5.50;;;12.80;77.90;;;;;;5006914;28;20651;-67
2023/06/16 11:02:59;;;;;;;12.23;4.10;;;12.80;78.20;;;;;;5002355;28;20239;-67
2023/06/16 11:05:40;;;;;;;9.40;4.47;;;12.80;78.20;;;;;;5008908;28;20229;-66
2023/06/16 11:08:11;;;;;;;10.93;4.27;;;12.80;78.20;;;;;;5004182;28;20189;-66
2023/06/16 11:10:52;;;;;;;8.77;4.53;;;12.80;78.50;;;;;;5004384;28;20181;-66
2023/06/16 11:13:29;;;;;;;6.37;3.80;;;12.70;78.70;;;;;;5005396;28;20540;-66
2023/06/16 11:15:57;;;;;;;13.13;4.63;;;12.80;78.80;;;;;;5005676;28;20239;-66
2023/06/16 11:18:33;;;;;;;11.00;4.53;;;12.80;78.60;;;;;;5005065;28;20690;-67
2023/06/16 11:21:08;;;;;;;8.83;4.43;;;12.70;78.40;;;;;;5004972;28;20559;-66
2023/06/16 11:23:36;;;;;;;15.57;5.40;;;12.70;78.70;;;;;;5003918;28;20197;-66
2023/06/16 11:26:17;;;;;;;13.47;4.80;;;12.60;79.00;;;;;;5006117;28;20190;-67
2023/06/16 11:28:44;;;;;;;14.53;5.00;;;12.50;79.20;;;;;;5002373;28;20184;-66
2023/06/16 11:31:14;;;;;;;10.57;5.03;;;12.50;79.40;;;;;;5005454;28;20186;-65
2023/06/16 11:33:42;;;;;;;8.70;5.23;;;12.50;79.70;;;;;;5003292;28;20186;-65
2023/06/16 11:36:22;;;;;;;10.23;4.60;;;12.50;79.60;;;;;;5004142;28;20305;-66
2023/06/16 11:38:52;;;;;;;9.43;4.67;;;12.40;79.80;;;;;;5004287;28;20996;-65
2023/06/16 11:41:22;;;;;;;9.80;5.10;;;12.30;79.60;;;;;;5003811;28;20347;-70
2023/06/16 11:43:51;;;;;;;9.97;5.27;;;12.30;79.90;;;;;;5000870;28;20184;-67
2023/06/16 11:46:24;;;;;;;15.00;5.43;;;12.30;80.10;;;;;;5002559;28;20178;-67
2023/06/16 11:48:52;;;;;;;12.67;5.77;;;12.20;80.00;;;;;;5002970;28;20193;-66
2023/06/16 11:51:21;;;;;;;11.23;5.30;;;12.20;80.80;;;;;;5001152;28;20181;-65
2023/06/16 11:53:48;;;;;;;10.73;5.17;;;12.20;80.70;;;;;;5001720;28;20194;-65
2023/06/16 11:56:17;;;;;;;9.23;4.67;;;12.20;80.60;;;;;;5003619;28;20694;-69
2023/06/16 11:58:48;;;;;;;9.17;4.90;;;12.10;80.60;;;;;;5004077;28;20191;-66
2023/06/16 12:01:16;;;;;;;9.97;5.30;;;12.00;80.90;;;;;;5003142;28;20186;-66
2023/06/16 12:04:05;;;;;;;10.27;5.27;;;12.00;80.80;;;;;;5003022;28;20547;-66
2023/06/16 12:07:12;;;;;;;10.93;5.17;;;12.00;81.00;;;;;;5004746;28;20177;-67
2023/06/16 12:09:40;;;;;;;7.67;5.20;;;12.00;81.00;;;;;;5006596;28;20533;-67
2023/06/16 12:12:08;;;;;;;10.03;5.40;;;11.90;81.40;;;;;;4982530;28;20188;-66
2023/06/16 12:14:39;;;;;;;11.33;6.13;;;11.90;81.30;;;;;;5005715;28;20651;-66
2023/06/16 12:17:07;;;;;;;9.93;5.67;;;12.00;81.30;;;;;;5004698;28;20549;-67
2023/06/16 12:19:35;;;;;;;10.07;5.43;;;11.90;81.30;;;;;;5004307;28;20224;-66
2023/06/16 12:22:04;;;;;;;11.77;5.57;;;11.90;81.70;;;;;;4999395;28;20229;-66
2023/06/16 12:24:31;;;;;;;10.90;6.00;;;11.90;81.80;;;;;;5006751;28;20188;-66
2023/06/16 12:27:00;;;;;;;14.70;6.03;;;11.90;81.70;;;;;;5001420;28;20660;-66
2023/06/16 12:29:28;;;;;;;9.93;6.93;;;11.90;81.60;;;;;;5009360;28;20185;-67
2023/06/16 12:32:05;;;;;;;14.40;6.87;;;11.90;81.80;;;;;;5001663;28;20251;-66
2023/06/16 12:34:36;;;;;;;10.80;6.60;;;11.80;82.10;;;;;;5002451;28;20226;-66
2023/06/16 12:37:09;;;;;;;14.07;6.93;;;11.90;81.70;;;;;;4998926;28;20220;-66
2023/06/16 12:39:38;;;;;;;14.37;6.83;;;11.80;81.90;;;;;;4999999;28;20209;-66
2023/06/16 12:42:11;;;;;;;10.20;6.40;;;11.70;81.60;;;;;;5005496;28;20189;-66
2023/06/16 12:44:51;;;;;;;14.87;6.70;;;11.70;82.20;;;;;;5000709;28;20264;-66
2023/06/16 12:47:24;;;;;;;13.77;7.80;;;11.70;82.40;;;;;;5006875;28;20193;-66
2023/06/16 12:49:56;;;;;;;17.20;6.80;;;11.70;82.20;;;;;;5000970;28;20177;-66
2023/06/16 12:52:25;;;;;;;12.17;7.53;;;11.70;82.20;;;;;;5007351;28;20177;-66
2023/06/16 12:54:54;;;;;;;9.80;7.07;;;11.60;82.50;;;;;;5007855;28;20189;-66
2023/06/16 12:57:23;;;;;;;12.83;7.10;;;11.60;82.40;;;;;;5000324;28;20223;-66